createdAt,value
2018-07-31T09:56:22.467Z,25.08
2018-07-31T09:58:53.182Z,24.65
2018-07-31T10:01:20.390Z,24.58
2018-07-31T10:03:48.309Z,24.80
2018-07-31T10:06:15.632Z,25.08
2018-07-31T10:08:42.818Z,25.48
2018-07-31T10:11:10.032Z,25.49
2018-07-31T10:13:37.240Z,25.43
2018-07-31T10:16:04.423Z,25.23
2018-07-31T10:18:31.683Z,25.11
2018-07-31T10:20:58.892Z,25.26
2018-07-31T10:23:26.106Z,25.32
2018-07-31T10:25:53.325Z,25.75
2018-07-31T10:28:20.496Z,25.71
2018-07-31T10:30:47.697Z,25.81
2018-07-31T10:33:14.960Z,25.71
2018-07-31T10:35:42.163Z,25.90
2018-07-31T10:38:09.389Z,25.83
2018-07-31T10:40:36.668Z,25.91
2018-07-31T10:43:03.868Z,26.08
2018-07-31T10:45:31.075Z,26.27
2018-07-31T10:47:58.323Z,26.48
2018-07-31T10:50:25.526Z,26.62
2018-07-31T10:52:53.263Z,26.88
2018-07-31T10:55:20.480Z,27.24
2018-07-31T10:57:48.096Z,27.48
2018-07-31T11:00:15.302Z,26.90
2018-07-31T11:02:44.687Z,26.66
2018-07-31T11:05:11.869Z,26.69
2018-07-31T11:07:39.060Z,27.33
2018-07-31T11:10:06.731Z,28.03
2018-07-31T11:12:33.987Z,28.83
2018-07-31T11:15:01.168Z,28.89
2018-07-31T11:17:28.416Z,28.20
2018-07-31T11:19:55.650Z,27.75
2018-07-31T11:22:22.839Z,27.85
2018-07-31T11:24:50.423Z,27.20
2018-07-31T11:27:17.603Z,27.13
2018-07-31T11:29:44.804Z,27.08
2018-07-31T11:32:12.011Z,27.66
2018-07-31T11:34:39.194Z,27.95
2018-07-31T11:37:06.416Z,27.85
2018-07-31T11:39:33.627Z,28.03
2018-07-31T11:42:00.800Z,28.07
2018-07-31T11:44:27.989Z,27.68
2018-07-31T11:46:55.275Z,27.66
2018-07-31T11:49:22.523Z,26.86
2018-07-31T11:51:49.712Z,26.56
2018-07-31T11:54:16.940Z,26.17
2018-07-31T11:56:45.184Z,26.26
2018-07-31T11:59:12.443Z,26.40
2018-07-31T12:01:39.682Z,26.45
2018-07-31T12:04:06.931Z,26.48
2018-07-31T12:06:34.171Z,26.20
2018-07-31T12:09:01.440Z,26.47
2018-07-31T12:11:28.615Z,26.70
2018-07-31T12:13:55.785Z,26.59
2018-07-31T12:16:23.054Z,26.28
2018-07-31T12:18:50.571Z,25.94
2018-07-31T12:21:17.741Z,25.47
2018-07-31T12:23:44.967Z,25.44
2018-07-31T12:26:12.148Z,25.15
2018-07-31T12:28:39.352Z,25.04
2018-07-31T12:31:06.636Z,25.05
2018-07-31T12:33:33.827Z,25.10
2018-07-31T12:36:01.010Z,25.14
2018-07-31T12:38:32.188Z,24.99
2018-07-31T12:40:59.376Z,25.17
2018-07-31T12:43:26.548Z,24.81
2018-07-31T12:45:53.773Z,24.88
2018-07-31T12:48:20.936Z,25.11
2018-07-31T12:50:48.112Z,25.35
2018-07-31T12:53:15.474Z,25.52
2018-07-31T12:55:42.643Z,25.41
2018-07-31T12:58:09.841Z,25.58
2018-07-31T13:00:37.553Z,25.83
2018-07-31T13:03:04.916Z,26.39
2018-07-31T13:05:32.107Z,27.32
2018-07-31T13:07:59.307Z,27.82
2018-07-31T13:10:26.473Z,27.60
2018-07-31T13:12:53.660Z,27.39
2018-07-31T13:15:20.921Z,27.53
2018-07-31T13:17:48.111Z,27.56
2018-07-31T13:20:15.276Z,27.53
2018-07-31T13:22:42.487Z,27.70
2018-07-31T13:25:09.683Z,27.86
2018-07-31T13:27:36.946Z,27.94
2018-07-31T13:30:04.745Z,27.85
2018-07-31T13:32:31.916Z,28.00
2018-07-31T13:34:59.102Z,27.84
2018-07-31T13:37:26.363Z,27.69
2018-07-31T13:39:53.543Z,26.69
2018-07-31T13:42:20.732Z,25.86
2018-07-31T13:44:47.974Z,25.93
2018-07-31T13:47:15.496Z,25.95
2018-07-31T13:49:42.667Z,26.02
2018-07-31T13:52:09.873Z,25.76
2018-07-31T13:54:37.103Z,25.72
2018-07-31T13:57:04.288Z,25.38
2018-07-31T13:59:31.629Z,25.17
2018-07-31T14:01:59.095Z,25.21
2018-07-31T14:04:26.296Z,24.98
2018-07-31T14:06:53.524Z,24.77
2018-07-31T14:09:20.749Z,24.93
2018-07-31T14:11:47.973Z,24.71
2018-07-31T14:14:15.164Z,24.22
2018-07-31T14:16:42.339Z,24.01
2018-07-31T14:19:09.536Z,23.36
2018-07-31T14:21:36.901Z,22.64
2018-07-31T14:24:04.093Z,22.35
2018-07-31T14:26:31.275Z,22.29
2018-07-31T14:28:58.508Z,21.84
2018-07-31T14:31:25.704Z,21.78
2018-07-31T14:33:52.884Z,21.79
2018-07-31T14:36:20.132Z,21.84
2018-07-31T14:38:47.327Z,21.85
2018-07-31T14:41:14.945Z,21.88
2018-07-31T14:43:42.444Z,21.97
2018-07-31T14:46:09.736Z,21.99
2018-07-31T14:48:36.921Z,21.91
2018-07-31T14:51:04.159Z,21.97
2018-07-31T14:53:31.340Z,21.90
2018-07-31T14:55:58.524Z,21.94
2018-07-31T14:58:25.856Z,21.78
2018-07-31T15:00:53.049Z,21.85
2018-07-31T15:03:20.299Z,21.91
2018-07-31T15:05:47.780Z,21.90
2018-07-31T15:08:14.973Z,21.88
2018-07-31T15:10:42.199Z,21.95
2018-07-31T15:13:09.419Z,21.92
2018-07-31T15:15:36.588Z,21.74
2018-07-31T15:18:03.780Z,21.46
2018-07-31T15:20:31.004Z,21.17
2018-07-31T15:22:58.196Z,21.14
2018-07-31T15:25:25.388Z,20.66
2018-07-31T15:27:52.880Z,20.46
2018-07-31T15:30:20.742Z,20.24
2018-07-31T15:32:47.929Z,20.23
2018-07-31T15:35:15.247Z,20.20
2018-07-31T15:37:42.548Z,20.09
2018-07-31T15:40:12.776Z,20.09
2018-07-31T15:42:43.152Z,20.14
2018-07-31T15:45:10.320Z,20.13
2018-07-31T15:48:09.705Z,20.08
2018-07-31T15:51:36.072Z,20.07
2018-07-31T15:56:38.725Z,20.32
2018-07-31T15:59:08.340Z,20.25
2018-07-31T16:01:37.993Z,20.17
2018-07-31T16:04:07.820Z,20.02
2018-07-31T16:06:37.884Z,20.03
2018-07-31T16:09:08.653Z,20.01
2018-07-31T16:11:38.367Z,20.07
2018-07-31T16:14:08.569Z,20.22
2018-07-31T16:16:38.507Z,20.24
2018-07-31T16:19:08.153Z,20.35
2018-07-31T16:21:37.776Z,20.40
2018-07-31T16:25:31.810Z,20.42
2018-07-31T16:28:01.433Z,20.43
2018-07-31T16:30:31.063Z,20.40
2018-07-31T16:33:00.750Z,20.38
2018-07-31T16:35:30.396Z,20.47
2018-07-31T16:38:00.066Z,20.42
2018-07-31T16:40:29.749Z,20.39
2018-07-31T16:42:59.387Z,20.42
2018-07-31T16:45:29.041Z,20.34
2018-07-31T16:47:58.777Z,20.36
2018-07-31T16:50:28.408Z,20.30
2018-07-31T16:52:58.040Z,20.32
2018-07-31T16:55:27.727Z,20.24
2018-07-31T16:57:57.348Z,20.22
2018-07-31T17:00:26.984Z,20.10
2018-07-31T17:02:56.661Z,20.11
2018-07-31T17:05:26.411Z,19.96
2018-07-31T17:07:56.046Z,19.90
2018-07-31T17:10:25.774Z,19.81
2018-07-31T17:12:55.425Z,19.81
2018-07-31T17:15:25.070Z,19.84
2018-07-31T17:17:54.728Z,19.81
2018-07-31T17:20:24.360Z,19.76
2018-07-31T17:22:53.981Z,19.81
2018-07-31T17:25:23.658Z,19.83
2018-07-31T17:27:53.303Z,19.84
2018-07-31T17:30:22.932Z,19.75
2018-07-31T17:32:52.656Z,19.63
2018-07-31T17:35:22.334Z,19.50
2018-07-31T17:37:52.732Z,19.44
2018-07-31T17:40:22.951Z,19.43
2018-07-31T17:42:52.572Z,19.20
2018-07-31T17:45:22.204Z,19.12
2018-07-31T17:47:51.882Z,19.23
2018-07-31T17:50:21.526Z,19.03
2018-07-31T17:52:51.562Z,18.76
2018-07-31T17:55:21.838Z,18.83
2018-07-31T17:57:51.657Z,18.56
2018-07-31T18:00:21.301Z,18.75
2018-07-31T18:02:50.976Z,18.84
2018-07-31T18:05:20.737Z,18.85
2018-07-31T18:07:50.814Z,18.99
2018-07-31T18:10:21.311Z,19.01
2018-07-31T18:12:51.168Z,18.92
2018-07-31T18:15:20.924Z,18.89
2018-07-31T18:17:51.148Z,18.87
2018-07-31T18:20:20.864Z,18.84
2018-07-31T18:22:50.480Z,18.62
2018-07-31T18:25:20.152Z,18.36
2018-07-31T18:27:49.798Z,18.13
2018-07-31T18:30:19.426Z,18.05
2018-07-31T18:32:49.314Z,17.98
2018-07-31T18:35:18.942Z,17.97
2018-07-31T18:37:48.618Z,17.90
2018-07-31T18:40:18.780Z,17.92
2018-07-31T18:42:48.422Z,17.77
2018-07-31T18:45:18.055Z,17.96
2018-07-31T18:47:47.737Z,18.07
2018-07-31T18:50:17.784Z,18.24
2018-07-31T18:52:47.525Z,18.26
2018-07-31T18:55:17.225Z,18.36
2018-07-31T18:57:46.867Z,18.36
2018-07-31T19:00:16.677Z,18.38
2018-07-31T19:02:46.403Z,18.46
2018-07-31T19:05:16.114Z,18.45
2018-07-31T19:07:45.860Z,18.49
2018-07-31T19:10:17.686Z,18.49
2018-07-31T19:12:47.320Z,18.54
2018-07-31T19:15:16.957Z,18.59
2018-07-31T19:17:46.766Z,18.66
2018-07-31T19:20:16.417Z,18.55
2018-07-31T19:22:46.060Z,18.56
2018-07-31T19:25:15.776Z,18.58
2018-07-31T19:27:45.968Z,18.51
2018-07-31T19:30:15.920Z,18.52
2018-07-31T19:32:45.723Z,18.11
2018-07-31T19:35:15.356Z,18.11
2018-07-31T19:37:45.041Z,18.16
2018-07-31T19:40:14.734Z,18.05
2018-07-31T19:42:47.034Z,17.95
2018-07-31T19:45:16.785Z,18.06
2018-07-31T19:47:46.576Z,18.17
2018-07-31T19:50:16.245Z,18.19
2018-07-31T19:52:46.036Z,18.26
2018-07-31T19:55:15.685Z,18.24
2018-07-31T19:57:45.351Z,18.23
2018-07-31T20:00:15.587Z,18.23
2018-07-31T20:02:45.278Z,18.12
2018-07-31T20:05:14.933Z,18.09
2018-07-31T20:07:45.474Z,18.07
2018-07-31T20:10:15.133Z,18.01
2018-07-31T20:12:44.968Z,17.94
2018-07-31T20:15:14.662Z,17.99
2018-07-31T20:17:44.507Z,17.96
2018-07-31T20:20:14.167Z,17.88
2018-07-31T20:22:43.846Z,17.78
2018-07-31T20:25:13.494Z,17.72
2018-07-31T20:27:43.131Z,17.69
2018-07-31T20:30:12.867Z,17.74
2018-07-31T20:32:42.537Z,17.78
2018-07-31T20:35:12.165Z,17.68
2018-07-31T20:37:46.979Z,17.59
2018-07-31T20:40:16.629Z,17.55
2018-07-31T20:42:46.264Z,17.49
2018-07-31T20:45:15.999Z,17.54
2018-07-31T20:47:45.673Z,17.40
2018-07-31T20:50:15.318Z,17.40
2018-07-31T20:52:44.993Z,17.46
2018-07-31T20:55:14.621Z,17.49
2018-07-31T20:57:44.250Z,17.44
2018-07-31T21:00:19.173Z,17.53
2018-07-31T21:02:53.892Z,17.55
2018-07-31T21:05:28.676Z,17.69
2018-07-31T21:08:03.925Z,17.56
2018-07-31T21:10:38.811Z,17.36
2018-07-31T21:13:13.545Z,17.16
2018-07-31T21:15:49.175Z,17.13
2018-07-31T21:18:23.878Z,17.22
2018-07-31T21:20:58.839Z,17.29
2018-07-31T21:23:33.975Z,17.33
2018-07-31T21:26:08.807Z,17.23
2018-07-31T21:28:43.672Z,17.15
2018-07-31T21:31:18.554Z,17.28
2018-07-31T21:33:53.349Z,17.34
2018-07-31T21:36:28.141Z,17.42
2018-07-31T21:39:03.044Z,17.53
2018-07-31T21:41:37.947Z,17.43
2018-07-31T21:44:12.876Z,17.41
2018-07-31T21:46:47.838Z,17.20
2018-07-31T21:49:22.533Z,17.01
2018-07-31T21:51:57.412Z,16.98
2018-07-31T21:54:32.230Z,16.74
2018-07-31T21:57:07.117Z,16.76
2018-07-31T21:59:42.018Z,16.90
2018-07-31T22:02:17.085Z,16.91
2018-07-31T22:04:51.704Z,16.98
2018-07-31T22:07:26.479Z,17.04
2018-07-31T22:10:01.299Z,17.20
2018-07-31T22:12:36.132Z,17.23
2018-07-31T22:15:11.368Z,17.27
2018-07-31T22:17:46.172Z,17.29
2018-07-31T22:20:21.072Z,17.33
2018-07-31T22:22:55.864Z,17.37
2018-07-31T22:25:30.637Z,17.27
2018-07-31T22:28:05.412Z,17.25
2018-07-31T22:30:40.092Z,17.20
2018-07-31T22:33:14.921Z,17.21
2018-07-31T22:35:49.674Z,17.26
2018-07-31T22:38:24.576Z,17.20
2018-07-31T22:40:59.268Z,17.23
2018-07-31T22:43:34.053Z,17.19
2018-07-31T22:46:08.880Z,17.05
2018-07-31T22:48:43.694Z,17.11
2018-07-31T22:51:18.532Z,17.15
2018-07-31T22:53:53.322Z,17.25
2018-07-31T22:56:28.116Z,17.26
2018-07-31T22:59:03.004Z,17.26
2018-07-31T23:01:37.713Z,17.29
2018-07-31T23:04:12.413Z,17.30
2018-07-31T23:06:47.096Z,17.40
2018-07-31T23:09:21.811Z,17.29
2018-07-31T23:11:56.500Z,17.22
2018-07-31T23:14:31.305Z,17.22
2018-07-31T23:17:06.578Z,17.22
2018-07-31T23:19:41.514Z,17.27
2018-07-31T23:22:20.808Z,17.21
2018-07-31T23:24:55.622Z,17.12
2018-07-31T23:27:30.343Z,17.11
2018-07-31T23:30:05.707Z,17.14
2018-07-31T23:32:40.936Z,17.18
2018-07-31T23:35:15.809Z,17.13
2018-07-31T23:37:50.633Z,17.21
2018-07-31T23:40:25.505Z,17.23
2018-07-31T23:43:00.662Z,17.28
2018-07-31T23:45:35.329Z,17.26
2018-07-31T23:48:10.040Z,17.26
2018-07-31T23:50:44.937Z,17.25
2018-07-31T23:53:19.779Z,17.21
2018-07-31T23:55:54.552Z,17.21
2018-07-31T23:58:29.292Z,17.16
